Time;durP1;ratioP1;P1;durP2;ratioP2;P2;SDS_P1;SDS_P2;PMS_P1;PMS_P2;Temp;Humidity;BMP_temperature;BMP_pressure;BME280_temperature;BME280_humidity;BME280_pressure;Samples;Min_cycle;Max_cycle;Signal;HPM_P1;HPM_P2
2021/10/02 00:46:08;;;;;;;6.20;4.40;;;;;;;;;;4973975;28;20562;-68
2021/10/02 00:48:36;;;;;;;5.47;4.93;;;;;;;;;;4976390;28;20777;-67
2021/10/02 00:54:06;;;;;;;5.30;4.33;;;;;;;;;;4976765;28;20583;-68
2021/10/02 00:56:32;;;;;;;7.00;5.30;;;;;;;;;;4976253;28;20462;-69
2021/10/02 00:58:58;;;;;;;5.43;4.77;;;;;;;;;;4976424;28;20422;-69
2021/10/02 01:01:32;;;;;;;4.93;4.23;;;;;;;;;;4976481;28;20833;-69
2021/10/02 01:04:20;;;;;;;5.73;5.13;;;;;;;;;;4976445;28;20790;-68
2021/10/02 01:10:11;;;;;;;6.87;5.03;;;;;;;;;;4976312;28;20521;-69
2021/10/02 01:12:45;;;;;;;5.70;5.10;;;;;;;;;;4976201;28;20414;-69
2021/10/02 01:15:14;;;;;;;5.23;4.70;;;;;;;;;;4976157;28;20425;-69
2021/10/02 01:17:50;;;;;;;4.97;4.47;;;;;;;;;;4976258;28;20445;-68
2021/10/02 01:20:37;;;;;;;5.33;4.83;;;;;;;;;;4976357;28;20422;-69
2021/10/02 01:23:03;;;;;;;5.07;4.57;;;;;;;;;;4976219;28;20462;-69
2021/10/02 01:25:43;;;;;;;5.30;4.80;;;;;;;;;;4976225;28;20933;-69
2021/10/02 01:28:17;;;;;;;5.07;4.57;;;;;;;;;;4975644;28;20917;-69
2021/10/02 01:31:07;;;;;;;7.83;4.90;;;;;;;;;;4976460;28;20418;-69
2021/10/02 01:33:43;;;;;;;6.00;5.40;;;;;;;;;;4976052;28;20422;-68
2021/10/02 01:47:11;;;;;;;4.53;4.07;;;;;;;;;;4975954;28;20546;-68
2021/10/02 01:49:38;;;;;;;5.27;4.77;;;;;;;;;;4975845;28;20410;-70
2021/10/02 01:52:05;;;;;;;7.10;4.20;;;;;;;;;;4975756;28;20773;-68
2021/10/02 01:54:31;;;;;;;6.03;4.70;;;;;;;;;;4975717;28;20425;-69
2021/10/02 01:56:58;;;;;;;5.60;4.57;;;;;;;;;;4975213;28;20418;-69
2021/10/02 01:59:29;;;;;;;7.30;5.47;;;;;;;;;;4975639;28;20403;-68
2021/10/02 02:01:56;;;;;;;8.80;5.50;;;;;;;;;;4975699;28;20476;-69
2021/10/02 02:04:23;;;;;;;7.93;5.70;;;;;;;;;;4975602;28;20415;-68
2021/10/02 02:06:50;;;;;;;6.63;5.50;;;;;;;;;;4975535;28;20905;-69
2021/10/02 02:09:17;;;;;;;6.50;5.03;;;;;;;;;;4975751;28;20419;-69
2021/10/02 02:11:44;;;;;;;5.30;4.80;;;;;;;;;;4975438;28;20775;-69
2021/10/02 02:14:11;;;;;;;8.80;5.30;;;;;;;;;;4975271;28;20411;-68
2021/10/02 02:16:39;;;;;;;6.63;5.90;;;;;;;;;;4975355;28;20419;-69
2021/10/02 02:19:05;;;;;;;8.50;5.43;;;;;;;;;;4975280;28;20501;-68
2021/10/02 02:21:31;;;;;;;6.63;5.40;;;;;;;;;;4975497;28;20541;-69
2021/10/02 02:23:58;;;;;;;6.00;5.00;;;;;;;;;;4975173;28;20897;-69
2021/10/02 02:26:26;;;;;;;5.47;4.97;;;;;;;;;;4975127;28;20954;-69
2021/10/02 02:28:52;;;;;;;4.67;4.27;;;;;;;;;;4974965;28;20419;-69
2021/10/02 02:31:18;;;;;;;5.93;4.73;;;;;;;;;;4975050;28;20426;-69
2021/10/02 02:33:44;;;;;;;6.10;5.50;;;;;;;;;;4975235;28;20747;-69
2021/10/02 02:36:10;;;;;;;5.67;4.70;;;;;;;;;;4975024;28;20423;-70
2021/10/02 02:38:37;;;;;;;6.43;4.90;;;;;;;;;;4975062;28;20411;-69
2021/10/02 02:41:03;;;;;;;6.60;4.90;;;;;;;;;;4974680;28;20565;-69
2021/10/02 02:43:32;;;;;;;6.17;5.53;;;;;;;;;;4975064;28;20763;-70
2021/10/02 02:46:02;;;;;;;5.83;5.23;;;;;;;;;;4975135;28;20441;-69
2021/10/02 02:48:31;;;;;;;5.77;4.67;;;;;;;;;;4974739;28;20505;-68
2021/10/02 02:50:57;;;;;;;8.93;5.30;;;;;;;;;;4974463;28;20953;-70
2021/10/02 02:53:26;;;;;;;7.47;5.57;;;;;;;;;;4974709;28;20426;-69
2021/10/02 02:55:55;;;;;;;6.20;4.70;;;;;;;;;;4974463;28;20478;-68
2021/10/02 02:58:23;;;;;;;6.80;5.20;;;;;;;;;;4974535;28;20465;-69
2021/10/02 03:00:56;;;;;;;6.47;5.73;;;;;;;;;;4974624;28;20502;-69
2021/10/02 03:03:34;;;;;;;9.60;6.30;;;;;;;;;;4974518;28;20972;-69
2021/10/02 03:06:09;;;;;;;5.40;4.90;;;;;;;;;;4974522;28;20409;-69
2021/10/02 03:08:37;;;;;;;7.90;6.30;;;;;;;;;;4973871;28;20422;-69
2021/10/02 03:11:04;;;;;;;7.23;5.30;;;;;;;;;;4973828;28;20493;-70
2021/10/02 03:13:31;;;;;;;7.70;5.37;;;;;;;;;;4974244;28;20423;-69
2021/10/02 03:15:57;;;;;;;6.33;5.73;;;;;;;;;;4974251;28;20902;-68
2021/10/02 03:18:25;;;;;;;8.43;5.73;;;;;;;;;;4974315;28;20493;-68
2021/10/02 03:20:53;;;;;;;6.40;5.60;;;;;;;;;;4974022;28;20817;-68
2021/10/02 03:26:23;;;;;;;6.83;6.20;;;;;;;;;;4973880;28;20477;-69
2021/10/02 03:28:50;;;;;;;6.67;6.00;;;;;;;;;;4973919;28;20429;-68
2021/10/02 03:31:17;;;;;;;7.63;6.10;;;;;;;;;;4974010;28;20541;-70
2021/10/02 03:33:43;;;;;;;8.70;6.00;;;;;;;;;;4974014;28;20415;-69
2021/10/02 03:36:09;;;;;;;9.50;6.30;;;;;;;;;;4973897;28;20421;-70
2021/10/02 03:38:37;;;;;;;7.47;5.70;;;;;;;;;;4973741;28;20430;-69
2021/10/02 03:41:03;;;;;;;8.93;5.60;;;;;;;;;;4973564;28;20474;-69
2021/10/02 03:43:30;;;;;;;6.13;5.40;;;;;;;;;;4974048;28;20442;-69
2021/10/02 03:45:56;;;;;;;9.53;5.00;;;;;;;;;;4973702;28;20466;-69
2021/10/02 03:48:22;;;;;;;6.90;5.20;;;;;;;;;;4973903;28;20422;-69
2021/10/02 03:50:48;;;;;;;9.77;5.70;;;;;;;;;;4974002;28;20441;-70
2021/10/02 03:56:18;;;;;;;5.60;4.97;;;;;;;;;;4973433;28;20852;-69
2021/10/02 03:58:44;;;;;;;5.93;5.33;;;;;;;;;;4973609;28;20810;-69
2021/10/02 04:01:10;;;;;;;5.83;5.23;;;;;;;;;;4973623;28;20481;-69
2021/10/02 04:03:36;;;;;;;5.40;5.00;;;;;;;;;;4973765;28;20422;-69
2021/10/02 04:06:02;;;;;;;7.00;4.73;;;;;;;;;;4973719;28;20419;-69
2021/10/02 04:11:32;;;;;;;9.77;6.40;;;;;;;;;;4973361;28;20783;-68
2021/10/02 04:13:58;;;;;;;6.33;5.20;;;;;;;;;;4973706;28;20430;-68
2021/10/02 04:16:24;;;;;;;7.40;5.70;;;;;;;;;;4973870;28;20485;-69
2021/10/02 04:18:50;;;;;;;6.43;5.70;;;;;;;;;;4973861;28;20434;-69
2021/10/02 04:21:16;;;;;;;8.23;5.37;;;;;;;;;;4975784;28;20979;-69
2021/10/02 04:26:46;;;;;;;6.43;5.57;;;;;;;;;;4977005;28;20456;-69
2021/10/02 04:29:12;;;;;;;5.40;4.90;;;;;;;;;;4977304;28;20498;-68
2021/10/02 04:31:38;;;;;;;8.00;4.90;;;;;;;;;;4977063;28;20411;-69
2021/10/02 04:34:05;;;;;;;5.60;5.10;;;;;;;;;;4977207;28;20497;-69
2021/10/02 04:36:32;;;;;;;6.37;5.73;;;;;;;;;;4976864;28;20910;-69
2021/10/02 04:42:01;;;;;;;5.17;4.67;;;;;;;;;;4976861;28;20972;-68
2021/10/02 04:44:27;;;;;;;6.57;5.17;;;;;;;;;;4976697;28;20423;-68
2021/10/02 04:46:53;;;;;;;7.63;6.10;;;;;;;;;;4977076;28;20430;-68
2021/10/02 04:49:19;;;;;;;5.80;5.23;;;;;;;;;;4976614;28;20441;-68
2021/10/02 04:51:45;;;;;;;7.67;5.87;;;;;;;;;;4976832;28;20842;-69
2021/10/02 04:57:15;;;;;;;8.03;4.90;;;;;;;;;;4976635;28;20927;-69
2021/10/02 04:59:41;;;;;;;7.47;6.67;;;;;;;;;;4976651;28;20716;-69
2021/10/02 05:02:07;;;;;;;6.33;5.73;;;;;;;;;;4976931;28;20802;-69
2021/10/02 05:04:33;;;;;;;7.10;6.40;;;;;;;;;;4976796;28;20415;-69
2021/10/02 05:12:47;;;;;;;7.93;5.47;;;;;;;;;;4976268;28;20425;-69
2021/10/02 05:15:13;;;;;;;7.10;5.63;;;;;;;;;;4976560;28;20414;-70
2021/10/02 05:17:39;;;;;;;5.83;5.23;;;;;;;;;;4976553;28;20568;-68
2021/10/02 05:20:05;;;;;;;8.37;6.07;;;;;;;;;;4976714;28;20411;-68
2021/10/02 05:22:31;;;;;;;8.57;6.07;;;;;;;;;;4976563;28;20477;-68
2021/10/02 05:24:57;;;;;;;7.20;5.50;;;;;;;;;;4976548;28;20543;-69
2021/10/02 05:27:23;;;;;;;6.70;5.30;;;;;;;;;;4976076;28;20910;-69
2021/10/02 05:29:49;;;;;;;6.73;6.00;;;;;;;;;;4976167;28;20419;-68
2021/10/02 05:32:16;;;;;;;8.43;6.00;;;;;;;;;;4975429;28;20434;-70
2021/10/02 05:34:42;;;;;;;8.43;6.23;;;;;;;;;;4974923;28;20485;-68
2021/10/02 05:37:09;;;;;;;7.97;6.13;;;;;;;;;;4971819;28;20438;-69
2021/10/02 05:42:38;;;;;;;6.77;6.00;;;;;;;;;;4975630;28;20833;-69
2021/10/02 05:45:05;;;;;;;7.00;6.10;;;;;;;;;;4976033;28;20467;-70
2021/10/02 05:47:31;;;;;;;7.30;5.97;;;;;;;;;;4975721;28;20419;-69
2021/10/02 05:49:57;;;;;;;6.80;6.10;;;;;;;;;;4975958;28;20521;-69
2021/10/02 05:52:23;;;;;;;6.50;5.83;;;;;;;;;;4975484;28;20466;-68
2021/10/02 05:54:49;;;;;;;5.37;4.87;;;;;;;;;;4975863;28;20481;-69
2021/10/02 05:57:15;;;;;;;6.70;5.97;;;;;;;;;;4975566;28;20430;-68
2021/10/02 05:59:41;;;;;;;7.67;5.87;;;;;;;;;;4975512;28;20427;-68
2021/10/02 06:02:07;;;;;;;9.80;5.40;;;;;;;;;;4975506;28;20891;-69
2021/10/02 06:04:33;;;;;;;7.00;6.27;;;;;;;;;;4975877;28;20908;-70
2021/10/02 06:06:59;;;;;;;6.80;5.43;;;;;;;;;;4975833;28;20414;-69
2021/10/02 06:12:28;;;;;;;8.33;5.80;;;;;;;;;;4975276;28;20445;-69
2021/10/02 06:14:54;;;;;;;7.63;6.93;;;;;;;;;;4975347;28;20457;-70
2021/10/02 06:17:20;;;;;;;6.90;6.30;;;;;;;;;;4975430;28;20427;-69
2021/10/02 06:19:46;;;;;;;10.30;6.30;;;;;;;;;;4975268;28;20479;-68
2021/10/02 06:22:13;;;;;;;10.33;6.57;;;;;;;;;;4975133;28;20968;-68
2021/10/02 06:27:42;;;;;;;10.20;7.03;;;;;;;;;;4974737;28;20434;-68
2021/10/02 06:30:08;;;;;;;8.07;6.60;;;;;;;;;;4975078;28;20887;-67
2021/10/02 06:32:34;;;;;;;6.03;5.43;;;;;;;;;;4975055;28;20421;-68
2021/10/02 06:35:00;;;;;;;6.70;6.00;;;;;;;;;;4975023;28;20419;-68
2021/10/02 06:37:26;;;;;;;8.27;6.40;;;;;;;;;;4974956;28;20783;-68
2021/10/02 06:42:56;;;;;;;7.60;6.50;;;;;;;;;;4974456;28;20453;-68
2021/10/02 06:45:22;;;;;;;6.10;5.50;;;;;;;;;;4974201;28;20422;-68
2021/10/02 06:47:49;;;;;;;6.40;5.80;;;;;;;;;;4975070;28;20489;-67
2021/10/02 06:50:15;;;;;;;6.20;5.40;;;;;;;;;;4974785;28;20499;-69
2021/10/02 06:52:41;;;;;;;12.80;7.93;;;;;;;;;;4974499;28;20450;-68
2021/10/02 06:58:11;;;;;;;7.23;5.40;;;;;;;;;;4974331;28;20430;-69
2021/10/02 07:00:37;;;;;;;9.70;5.60;;;;;;;;;;4973998;28;20466;-70
2021/10/02 07:03:03;;;;;;;5.20;4.70;;;;;;;;;;4974077;28;20517;-67
2021/10/02 07:05:29;;;;;;;5.63;5.13;;;;;;;;;;4974181;28;20418;-69
2021/10/02 07:07:56;;;;;;;6.10;5.60;;;;;;;;;;4971146;28;20426;-69
2021/10/02 07:13:25;;;;;;;9.23;5.40;;;;;;;;;;4973792;28;20468;-68
2021/10/02 07:15:51;;;;;;;7.03;6.30;;;;;;;;;;4973201;28;20965;-68
2021/10/02 07:18:17;;;;;;;6.37;5.67;;;;;;;;;;4973992;28;20421;-68
2021/10/02 07:20:43;;;;;;;6.50;5.50;;;;;;;;;;4973747;28;20541;-68
2021/10/02 07:23:09;;;;;;;5.97;5.37;;;;;;;;;;4973573;28;20442;-67
2021/10/02 07:28:39;;;;;;;7.60;5.47;;;;;;;;;;4974063;28;20921;-68
2021/10/02 07:31:05;;;;;;;4.93;4.43;;;;;;;;;;4974228;28;20411;-69
2021/10/02 07:33:31;;;;;;;7.63;4.60;;;;;;;;;;4974188;28;20411;-70
2021/10/02 07:35:57;;;;;;;5.67;4.70;;;;;;;;;;4974076;28;20501;-68
2021/10/02 07:38:23;;;;;;;6.43;4.70;;;;;;;;;;4974154;28;20446;-69
2021/10/02 07:43:55;;;;;;;4.70;4.20;;;;;;;;;;4973984;28;20422;-68
2021/10/02 07:46:21;;;;;;;4.70;4.20;;;;;;;;;;4974353;28;20505;-68
2021/10/02 07:48:47;;;;;;;6.43;4.07;;;;;;;;;;4974042;28;20415;-67
2021/10/02 07:51:13;;;;;;;4.10;3.70;;;;;;;;;;4973966;28;20425;-68
2021/10/02 07:59:29;;;;;;;4.13;3.73;;;;;;;;;;4977610;28;20461;-68
2021/10/02 08:01:57;;;;;;;7.67;4.13;;;;;;;;;;4977766;28;20686;-69
2021/10/02 08:04:23;;;;;;;3.57;3.27;;;;;;;;;;4977777;28;20426;-69
2021/10/02 08:06:49;;;;;;;4.37;3.57;;;;;;;;;;4978002;28;20422;-68
2021/10/02 08:09:16;;;;;;;3.30;3.00;;;;;;;;;;4977722;28;20422;-68
2021/10/02 08:11:42;;;;;;;3.90;3.33;;;;;;;;;;4977455;28;20971;-69
2021/10/02 08:14:08;;;;;;;2.67;2.47;;;;;;;;;;4977603;28;20415;-68
2021/10/02 08:16:36;;;;;;;2.63;2.43;;;;;;;;;;4974244;28;20426;-69
2021/10/02 08:19:02;;;;;;;5.60;2.70;;;;;;;;;;4974398;28;20424;-68
2021/10/02 08:21:29;;;;;;;2.90;2.70;;;;;;;;;;4975418;28;20474;-68
2021/10/02 08:23:55;;;;;;;2.60;2.40;;;;;;;;;;4975307;28;20418;-69
2021/10/02 08:29:25;;;;;;;2.30;2.10;;;;;;;;;;4975394;28;20421;-72
2021/10/02 08:31:53;;;;;;;2.30;2.10;;;;;;;;;;4975963;28;20802;-69
2021/10/02 08:34:19;;;;;;;4.20;2.30;;;;;;;;;;4975877;28;20415;-68
2021/10/02 08:36:45;;;;;;;3.33;2.30;;;;;;;;;;4975583;28;20417;-69
2021/10/02 08:39:11;;;;;;;2.80;2.40;;;;;;;;;;4975452;28;20418;-69
2021/10/02 08:41:38;;;;;;;2.27;2.00;;;;;;;;;;4975666;28;20477;-68
2021/10/02 08:44:04;;;;;;;1.97;1.80;;;;;;;;;;4975595;28;20421;-68
2021/10/02 08:46:30;;;;;;;2.27;1.93;;;;;;;;;;4971015;28;20465;-68
2021/10/02 08:49:28;;;;;;;3.00;2.07;;;;;;;;;;4975464;28;20465;-68
2021/10/02 08:51:55;;;;;;;2.40;2.20;;;;;;;;;;4974344;28;20489;-68
2021/10/02 08:54:22;;;;;;;2.23;2.03;;;;;;;;;;4974714;28;20437;-67
2021/10/02 08:56:49;;;;;;;2.90;1.90;;;;;;;;;;4975079;28;20431;-68
2021/10/02 08:59:16;;;;;;;2.10;1.90;;;;;;;;;;4974723;28;20429;-67
2021/10/02 09:01:42;;;;;;;3.70;2.00;;;;;;;;;;4975113;28;20818;-68
2021/10/02 09:04:08;;;;;;;2.13;1.93;;;;;;;;;;4971968;28;20407;-69
2021/10/02 09:06:35;;;;;;;2.93;2.17;;;;;;;;;;4973293;28;20415;-68
2021/10/02 09:09:01;;;;;;;1.90;1.70;;;;;;;;;;4974503;28;20768;-68
2021/10/02 09:14:31;;;;;;;2.50;2.27;;;;;;;;;;4974488;28;20453;-68
2021/10/02 09:16:57;;;;;;;2.30;1.70;;;;;;;;;;4974139;28;20418;-67
2021/10/02 09:19:23;;;;;;;2.20;2.00;;;;;;;;;;4974619;28;20922;-68
2021/10/02 09:21:57;;;;;;;3.43;2.30;;;;;;;;;;4974647;28;20470;-68
2021/10/02 09:24:25;;;;;;;5.27;2.30;;;;;;;;;;4974574;28;20418;-69
2021/10/02 09:29:54;;;;;;;2.70;2.07;;;;;;;;;;4973978;28;20438;-69
2021/10/02 09:32:43;;;;;;;4.13;2.50;;;;;;;;;;4974176;28;20441;-69
2021/10/02 09:35:16;;;;;;;3.83;2.93;;;;;;;;;;4973893;28;20497;-68
2021/10/02 09:37:44;;;;;;;2.57;2.30;;;;;;;;;;4973990;28;20414;-67
2021/10/02 09:40:18;;;;;;;3.20;2.00;;;;;;;;;;4974018;28;20742;-67
2021/10/02 09:42:46;;;;;;;2.60;2.40;;;;;;;;;;4974136;28;20449;-67
2021/10/02 09:45:17;;;;;;;3.63;2.43;;;;;;;;;;4973826;28;20414;-68
2021/10/02 09:47:43;;;;;;;2.57;2.37;;;;;;;;;;4974052;28;20997;-69
2021/10/02 09:50:11;;;;;;;2.30;2.10;;;;;;;;;;4974089;28;20514;-69
2021/10/02 09:52:38;;;;;;;3.10;2.80;;;;;;;;;;4970919;28;20820;-68
2021/10/02 09:55:15;;;;;;;2.80;2.60;;;;;;;;;;4972290;28;21016;-69
2021/10/02 09:57:42;;;;;;;3.20;2.53;;;;;;;;;;4972480;28;20519;-70
2021/10/02 10:00:10;;;;;;;5.40;2.57;;;;;;;;;;4972264;28;20425;-70
2021/10/02 10:02:40;;;;;;;3.77;2.37;;;;;;;;;;4972049;28;20556;-69
2021/10/02 10:05:06;;;;;;;2.90;2.63;;;;;;;;;;4971303;28;20422;-69
2021/10/02 10:07:33;;;;;;;4.87;3.10;;;;;;;;;;4972020;28;20427;-68
2021/10/02 10:10:19;;;;;;;2.50;2.20;;;;;;;;;;4972298;28;20426;-68
2021/10/02 10:12:45;;;;;;;2.80;2.50;;;;;;;;;;4971811;28;20445;-68
2021/10/02 10:15:30;;;;;;;3.30;2.70;;;;;;;;;;4971935;28;20529;-68
2021/10/02 10:17:56;;;;;;;5.07;3.37;;;;;;;;;;4971745;28;20920;-71
2021/10/02 10:20:33;;;;;;;2.63;2.43;;;;;;;;;;4971641;28;20433;-68
2021/10/02 10:23:02;;;;;;;3.00;2.67;;;;;;;;;;4972274;28;20926;-70
2021/10/02 10:25:28;;;;;;;3.80;2.93;;;;;;;;;;4971946;28;21056;-69
2021/10/02 10:27:57;;;;;;;2.93;2.50;;;;;;;;;;4971682;28;20635;-69
2021/10/02 10:30:24;;;;;;;3.47;2.80;;;;;;;;;;4971710;28;20509;-70
2021/10/02 10:33:08;;;;;;;3.00;2.77;;;;;;;;;;4972057;28;20784;-68
2021/10/02 10:35:35;;;;;;;2.83;2.63;;;;;;;;;;4971904;28;20431;-69
2021/10/02 10:38:02;;;;;;;3.13;2.73;;;;;;;;;;4972278;28;20538;-69
2021/10/02 10:40:28;;;;;;;3.20;2.90;;;;;;;;;;4972879;28;20949;-70
2021/10/02 10:42:54;;;;;;;3.33;3.00;;;;;;;;;;4972709;28;20426;-69
2021/10/02 10:45:21;;;;;;;2.90;2.60;;;;;;;;;;4972869;28;20481;-69
2021/10/02 10:47:47;;;;;;;5.73;3.30;;;;;;;;;;4973031;28;20422;-69
2021/10/02 10:50:13;;;;;;;4.57;3.43;;;;;;;;;;4971995;28;21041;-70
2021/10/02 10:52:40;;;;;;;3.53;3.00;;;;;;;;;;4972640;28;20923;-70
2021/10/02 10:55:14;;;;;;;4.80;3.27;;;;;;;;;;4972335;28;20469;-70
2021/10/02 11:00:44;;;;;;;3.67;2.90;;;;;;;;;;4972492;28;20509;-68
2021/10/02 11:03:11;;;;;;;6.30;3.23;;;;;;;;;;4972637;28;20430;-69
2021/10/02 11:05:39;;;;;;;4.20;3.80;;;;;;;;;;4972883;28;20427;-69
2021/10/02 11:08:06;;;;;;;3.00;2.80;;;;;;;;;;4972631;28;20427;-68
2021/10/02 11:10:47;;;;;;;5.80;3.57;;;;;;;;;;4972603;28;20441;-70
2021/10/02 11:13:13;;;;;;;2.77;2.43;;;;;;;;;;4972302;28;20797;-69
2021/10/02 11:15:39;;;;;;;3.43;3.13;;;;;;;;;;4972550;28;20417;-68
2021/10/02 11:18:06;;;;;;;3.23;2.70;;;;;;;;;;4971380;28;20532;-67
2021/10/02 11:20:33;;;;;;;3.50;3.20;;;;;;;;;;4972429;28;20433;-67
2021/10/02 11:23:18;;;;;;;3.33;3.13;;;;;;;;;;4972274;28;20426;-68
2021/10/02 11:25:44;;;;;;;3.30;3.00;;;;;;;;;;4972449;28;20445;-71
2021/10/02 11:28:25;;;;;;;3.30;3.00;;;;;;;;;;4971687;28;20454;-67
2021/10/02 11:30:53;;;;;;;3.37;3.07;;;;;;;;;;4971293;28;20423;-70
2021/10/02 11:33:37;;;;;;;4.03;3.10;;;;;;;;;;4972070;28;20468;-67
2021/10/02 11:36:23;;;;;;;4.03;3.67;;;;;;;;;;4974056;28;20501;-68
2021/10/02 11:38:49;;;;;;;3.07;2.77;;;;;;;;;;4973200;28;20437;-69
2021/10/02 11:41:22;;;;;;;3.50;3.10;;;;;;;;;;4973610;28;20454;-68
2021/10/02 11:43:54;;;;;;;7.00;3.60;;;;;;;;;;4973563;28;20418;-68
2021/10/02 11:46:25;;;;;;;4.13;3.50;;;;;;;;;;4973558;28;20435;-70
2021/10/02 11:48:51;;;;;;;3.10;2.57;;;;;;;;;;4971743;28;20529;-70
2021/10/02 11:51:29;;;;;;;2.93;2.47;;;;;;;;;;4973735;28;20521;-70
2021/10/02 11:53:59;;;;;;;3.30;3.00;;;;;;;;;;4972090;28;20427;-71
2021/10/02 11:56:29;;;;;;;3.70;2.70;;;;;;;;;;4971434;28;20565;-69
2021/10/02 11:58:59;;;;;;;4.40;4.00;;;;;;;;;;4971983;28;20431;-69
2021/10/02 12:01:29;;;;;;;3.57;3.27;;;;;;;;;;4972188;28;20569;-71
2021/10/02 12:04:03;;;;;;;3.47;2.80;;;;;;;;;;4971867;28;20419;-70
2021/10/02 12:06:29;;;;;;;3.90;3.17;;;;;;;;;;4972402;28;20414;-69
2021/10/02 12:08:57;;;;;;;3.70;2.93;;;;;;;;;;4973735;28;20493;-69
2021/10/02 12:11:23;;;;;;;3.97;3.53;;;;;;;;;;4973049;28;20510;-69
2021/10/02 12:13:51;;;;;;;3.23;2.83;;;;;;;;;;4973224;28;20411;-69
2021/10/02 12:16:27;;;;;;;3.20;2.87;;;;;;;;;;4969457;28;20422;-69
2021/10/02 12:18:58;;;;;;;2.93;2.70;;;;;;;;;;4971987;28;20477;-69
2021/10/02 12:21:23;;;;;;;2.87;2.63;;;;;;;;;;4971012;28;20474;-68
2021/10/02 12:24:04;;;;;;;3.93;3.27;;;;;;;;;;4971664;28;20434;-68
2021/10/02 12:26:32;;;;;;;3.23;2.93;;;;;;;;;;4972237;28;20427;-69
2021/10/02 12:29:02;;;;;;;3.23;2.97;;;;;;;;;;4969466;28;20930;-69
2021/10/02 12:31:45;;;;;;;3.13;2.83;;;;;;;;;;4971660;28;20920;-69
2021/10/02 12:34:20;;;;;;;3.07;2.77;;;;;;;;;;4971707;28;20425;-68
2021/10/02 12:36:49;;;;;;;3.27;2.30;;;;;;;;;;4971752;28;20428;-68
2021/10/02 12:39:16;;;;;;;2.80;2.60;;;;;;;;;;4971787;28;20422;-69
2021/10/02 12:41:43;;;;;;;3.93;2.83;;;;;;;;;;4972608;28;20485;-69
2021/10/02 12:44:19;;;;;;;2.77;2.57;;;;;;;;;;4975144;28;20418;-68
2021/10/02 12:46:45;;;;;;;3.40;3.10;;;;;;;;;;4974905;28;20882;-69
2021/10/02 12:49:12;;;;;;;3.87;3.00;;;;;;;;;;4974960;28;20477;-71
2021/10/02 12:51:39;;;;;;;4.60;2.80;;;;;;;;;;4975208;28;20409;-69
2021/10/02 12:54:06;;;;;;;3.07;2.77;;;;;;;;;;4974756;28;20481;-70
2021/10/02 12:56:32;;;;;;;5.33;3.30;;;;;;;;;;4974293;28;20586;-69
2021/10/02 12:59:11;;;;;;;4.83;2.70;;;;;;;;;;4974587;28;20418;-69
2021/10/02 13:01:44;;;;;;;3.17;2.87;;;;;;;;;;4974545;28;20465;-69
2021/10/02 13:04:14;;;;;;;3.83;2.40;;;;;;;;;;4974875;28;20422;-69
2021/10/02 13:06:53;;;;;;;3.30;2.50;;;;;;;;;;4974457;28;20425;-71
2021/10/02 13:09:20;;;;;;;2.77;2.27;;;;;;;;;;4974789;28;20422;-68
2021/10/02 13:11:47;;;;;;;2.33;2.13;;;;;;;;;;4974371;28;20418;-69
2021/10/02 13:14:29;;;;;;;2.80;2.60;;;;;;;;;;4974681;28;20423;-69
2021/10/02 13:16:59;;;;;;;3.73;2.57;;;;;;;;;;4974489;28;20764;-68
2021/10/02 13:19:32;;;;;;;3.37;2.20;;;;;;;;;;4974687;28;20845;-69
2021/10/02 13:22:18;;;;;;;2.70;2.50;;;;;;;;;;4974691;28;20478;-68
2021/10/02 13:25:03;;;;;;;3.30;2.10;;;;;;;;;;4974527;28;20422;-68
2021/10/02 13:27:29;;;;;;;2.80;2.37;;;;;;;;;;4972948;28;20529;-69
2021/10/02 13:30:07;;;;;;;2.97;2.57;;;;;;;;;;4974363;28;20502;-69
2021/10/02 13:32:34;;;;;;;4.00;2.53;;;;;;;;;;4974049;28;20732;-69
2021/10/02 13:35:03;;;;;;;2.40;2.20;;;;;;;;;;4974497;28;20433;-69
2021/10/02 13:37:29;;;;;;;3.63;3.13;;;;;;;;;;4973663;28;20493;-69
2021/10/02 13:39:55;;;;;;;6.33;2.80;;;;;;;;;;4974078;28;20410;-68
2021/10/02 13:42:21;;;;;;;4.27;3.03;;;;;;;;;;4973618;28;20470;-68
2021/10/02 13:44:53;;;;;;;3.17;2.43;;;;;;;;;;4973907;28;20415;-70
2021/10/02 13:47:23;;;;;;;2.77;2.13;;;;;;;;;;4974299;28;20423;-68
2021/10/02 13:49:49;;;;;;;3.17;2.77;;;;;;;;;;4974801;28;20489;-69
2021/10/02 13:52:19;;;;;;;2.20;2.00;;;;;;;;;;4975569;28;20443;-69
2021/10/02 13:54:45;;;;;;;2.97;2.40;;;;;;;;;;4974828;28;20869;-68
2021/10/02 13:57:12;;;;;;;2.50;2.30;;;;;;;;;;4975238;28;20482;-69
2021/10/02 13:59:39;;;;;;;4.40;2.67;;;;;;;;;;4975130;28;20833;-67
2021/10/02 14:02:05;;;;;;;3.97;2.60;;;;;;;;;;4974889;28;20477;-70
2021/10/02 14:04:33;;;;;;;3.17;2.87;;;;;;;;;;4975453;28;20430;-69
2021/10/02 14:06:59;;;;;;;3.30;2.97;;;;;;;;;;4975292;28;20773;-70
2021/10/02 14:09:25;;;;;;;2.63;2.43;;;;;;;;;;4975141;28;20403;-69
2021/10/02 14:11:51;;;;;;;3.27;2.97;;;;;;;;;;4974781;28;20415;-70
2021/10/02 14:17:22;;;;;;;3.27;2.70;;;;;;;;;;4973651;28;20468;-68
2021/10/02 14:19:48;;;;;;;4.17;2.60;;;;;;;;;;4975071;28;20836;-70
2021/10/02 14:22:14;;;;;;;2.70;2.43;;;;;;;;;;4975172;28;20798;-70
2021/10/02 14:24:40;;;;;;;3.77;3.47;;;;;;;;;;4974954;28;20426;-69
2021/10/02 14:27:06;;;;;;;4.13;2.90;;;;;;;;;;4974734;28;20770;-69
2021/10/02 14:32:35;;;;;;;3.93;2.70;;;;;;;;;;4974821;28;20524;-69
2021/10/02 14:35:01;;;;;;;3.30;3.00;;;;;;;;;;4974637;28;20422;-69
2021/10/02 14:37:27;;;;;;;3.10;2.80;;;;;;;;;;4974589;28;20418;-68
2021/10/02 14:39:53;;;;;;;5.53;3.27;;;;;;;;;;4974330;28;20457;-69
2021/10/02 14:42:20;;;;;;;4.00;2.90;;;;;;;;;;4974448;28;20474;-69
2021/10/02 14:44:49;;;;;;;3.90;3.60;;;;;;;;;;4974667;28;20474;-68
2021/10/02 14:47:18;;;;;;;3.87;3.30;;;;;;;;;;4974716;28;20422;-69
2021/10/02 14:49:44;;;;;;;3.37;3.07;;;;;;;;;;4974751;28;20710;-69
2021/10/02 14:52:11;;;;;;;5.77;2.90;;;;;;;;;;4974725;28;20442;-69
2021/10/02 14:54:39;;;;;;;3.53;3.23;;;;;;;;;;4974187;28;20411;-69
2021/10/02 14:57:05;;;;;;;3.43;3.10;;;;;;;;;;4974068;28;20852;-69
2021/10/02 15:02:35;;;;;;;3.07;2.77;;;;;;;;;;4974020;28;20488;-70
2021/10/02 15:05:01;;;;;;;3.90;3.50;;;;;;;;;;4972318;28;20894;-69
2021/10/02 15:07:27;;;;;;;3.50;3.17;;;;;;;;;;4971487;28;20809;-68
2021/10/02 15:09:53;;;;;;;6.93;3.20;;;;;;;;;;4972518;28;20419;-69
2021/10/02 15:12:20;;;;;;;5.53;3.60;;;;;;;;;;4972281;28;20430;-68
2021/10/02 15:17:50;;;;;;;4.00;3.00;;;;;;;;;;4972243;28;20464;-69
2021/10/02 15:20:16;;;;;;;4.60;3.40;;;;;;;;;;4972225;28;20455;-70
2021/10/02 15:22:43;;;;;;;3.47;2.70;;;;;;;;;;4972183;28;20517;-69
2021/10/02 15:25:11;;;;;;;3.40;3.00;;;;;;;;;;4972304;28;20472;-69
2021/10/02 15:33:44;;;;;;;3.13;2.83;;;;;;;;;;4971955;28;20469;-69
2021/10/02 15:36:10;;;;;;;3.40;3.10;;;;;;;;;;4971892;28;20411;-69
2021/10/02 15:38:36;;;;;;;3.33;3.03;;;;;;;;;;4970796;28;20434;-70
2021/10/02 15:41:02;;;;;;;4.53;3.00;;;;;;;;;;4971931;28;20925;-70
2021/10/02 15:43:32;;;;;;;4.30;3.30;;;;;;;;;;4972050;28;20415;-69
2021/10/02 15:45:58;;;;;;;4.37;3.73;;;;;;;;;;4972258;28;20410;-68
2021/10/02 15:48:30;;;;;;;5.60;3.83;;;;;;;;;;4971859;28;20513;-69
2021/10/02 15:50:56;;;;;;;4.13;3.73;;;;;;;;;;4970359;28;20430;-68
2021/10/02 15:53:22;;;;;;;4.83;3.83;;;;;;;;;;4971833;28;20481;-69
2021/10/02 15:55:51;;;;;;;4.10;3.23;;;;;;;;;;4971992;28;21063;-69
2021/10/02 15:58:19;;;;;;;3.50;3.20;;;;;;;;;;4971711;28;20415;-68
2021/10/02 16:00:45;;;;;;;4.00;3.50;;;;;;;;;;4971834;28;20415;-69
2021/10/02 16:03:18;;;;;;;4.93;3.73;;;;;;;;;;4971886;28;20906;-70
2021/10/02 16:05:48;;;;;;;6.70;3.33;;;;;;;;;;4971743;28;20419;-68
2021/10/02 16:08:16;;;;;;;3.90;3.10;;;;;;;;;;4970266;28;20469;-69
2021/10/02 16:10:42;;;;;;;3.40;3.13;;;;;;;;;;4970551;28;20496;-69
2021/10/02 16:13:08;;;;;;;4.37;3.97;;;;;;;;;;4971901;28;20431;-69
2021/10/02 16:15:35;;;;;;;3.63;3.20;;;;;;;;;;4971989;28;20430;-69
2021/10/02 16:18:06;;;;;;;4.03;3.50;;;;;;;;;;4975181;28;20936;-69
2021/10/02 16:20:33;;;;;;;4.10;3.70;;;;;;;;;;4975467;28;20458;-69
2021/10/02 16:22:59;;;;;;;5.00;4.00;;;;;;;;;;4973786;28;20462;-68
2021/10/02 16:25:26;;;;;;;4.80;3.30;;;;;;;;;;4975352;28;20505;-68
2021/10/02 16:27:53;;;;;;;4.27;3.90;;;;;;;;;;4975057;28;20554;-71
2021/10/02 16:33:22;;;;;;;6.80;4.33;;;;;;;;;;4974995;28;20445;-71
2021/10/02 16:35:48;;;;;;;5.07;3.47;;;;;;;;;;4975042;28;20502;-71
2021/10/02 16:38:16;;;;;;;4.13;3.70;;;;;;;;;;4975180;28;20423;-72
2021/10/02 16:40:42;;;;;;;4.53;3.50;;;;;;;;;;4975087;28;20847;-71
2021/10/02 16:43:08;;;;;;;4.77;4.37;;;;;;;;;;4973894;28;20763;-70
2021/10/02 16:48:37;;;;;;;4.77;4.20;;;;;;;;;;4974736;28;20489;-70
2021/10/02 16:51:03;;;;;;;5.73;5.23;;;;;;;;;;4974939;28;20753;-70
2021/10/02 16:53:30;;;;;;;5.43;3.70;;;;;;;;;;4974530;28;20424;-70
2021/10/02 16:55:56;;;;;;;4.10;3.67;;;;;;;;;;4974596;28;20469;-71
2021/10/02 17:04:11;;;;;;;5.87;4.93;;;;;;;;;;4974513;28;20421;-70
2021/10/02 17:06:37;;;;;;;6.60;4.07;;;;;;;;;;4974556;28;20889;-71
2021/10/02 17:09:03;;;;;;;4.47;4.00;;;;;;;;;;4974330;28;20512;-71
2021/10/02 17:11:29;;;;;;;5.00;4.30;;;;;;;;;;4974359;28;20430;-71
2021/10/02 17:13:55;;;;;;;6.70;4.10;;;;;;;;;;4973361;28;20462;-71
2021/10/02 17:16:21;;;;;;;4.87;3.90;;;;;;;;;;4974200;28;20426;-71
2021/10/02 17:18:47;;;;;;;4.83;4.33;;;;;;;;;;4974410;28;20818;-72
2021/10/02 17:21:13;;;;;;;6.10;4.20;;;;;;;;;;4974413;28;20478;-71
2021/10/02 17:23:39;;;;;;;3.93;3.63;;;;;;;;;;4974419;28;20465;-73
2021/10/02 17:26:05;;;;;;;4.57;4.00;;;;;;;;;;4973791;28;20569;-72
2021/10/02 17:28:31;;;;;;;3.70;3.40;;;;;;;;;;4973651;28;20419;-71